Time;durP1;ratioP1;P1;durP2;ratioP2;P2;SDS_P1;SDS_P2;PMS_P1;PMS_P2;Temp;Humidity;BMP_temperature;BMP_pressure;BME280_temperature;BME280_humidity;BME280_pressure;Samples;Min_cycle;Max_cycle;Signal;HPM_P1;HPM_P2
2023/01/05 00:01:57;;;;;;;5.30;0.82;;;18.40;71.40;;;;;;7408490;19;19922;-57
2023/01/05 00:04:27;;;;;;;5.60;0.50;;;18.30;71.40;;;;;;7408034;19;19915;-57
2023/01/05 00:06:56;;;;;;;5.85;0.60;;;18.30;71.40;;;;;;7407812;19;19978;-57
2023/01/05 00:09:25;;;;;;;5.45;0.93;;;18.30;71.50;;;;;;7407727;19;19951;-57
2023/01/05 00:22:50;;;;;;;5.00;0.90;;;18.20;71.70;;;;;;7404302;19;19934;-57
2023/01/05 00:25:21;;;;;;;4.70;0.70;;;18.20;71.70;;;;;;7405461;19;19947;-57
2023/01/05 00:27:52;;;;;;;4.45;0.70;;;18.20;71.70;;;;;;7407568;19;19958;-57
2023/01/05 00:30:26;;;;;;;5.28;0.95;;;18.20;71.50;;;;;;7407562;19;20003;-57
2023/01/05 00:32:56;;;;;;;3.80;0.50;;;18.20;71.50;;;;;;7405865;19;19930;-56
2023/01/05 00:35:25;;;;;;;3.33;0.63;;;18.20;71.40;;;;;;7404675;19;19911;-57
2023/01/05 00:37:54;;;;;;;4.03;0.43;;;18.30;71.30;;;;;;7407529;19;20395;-57
2023/01/05 00:40:26;;;;;;;4.88;0.63;;;18.40;71.30;;;;;;7406161;19;20836;-57
2023/01/05 00:42:55;;;;;;;3.80;0.82;;;18.40;71.20;;;;;;7407875;19;19922;-56
2023/01/05 00:45:27;;;;;;;4.90;0.63;;;18.40;71.00;;;;;;7406723;19;19918;-57
2023/01/05 00:47:56;;;;;;;4.30;0.77;;;18.50;70.90;;;;;;7406141;19;19926;-57
2023/01/05 00:50:26;;;;;;;3.53;0.93;;;18.50;70.80;;;;;;7405422;19;19914;-56
2023/01/05 00:52:55;;;;;;;;;;;18.60;70.70;;;;;;7409521;19;19922;-57
2023/01/05 00:55:24;;;;;;;4.28;0.55;;;18.70;70.70;;;;;;7406642;19;19933;-56
2023/01/05 00:57:53;;;;;;;2.90;0.57;;;18.70;70.40;;;;;;7405422;19;20237;-57
2023/01/05 01:00:22;;;;;;;4.00;0.60;;;18.70;70.30;;;;;;7406752;19;19925;-57
2023/01/05 01:02:55;;;;;;;3.17;0.55;;;18.70;70.30;;;;;;7405255;19;19918;-57
2023/01/05 01:05:25;;;;;;;4.72;0.50;;;18.80;70.20;;;;;;7407787;19;19919;-57
2023/01/05 01:07:55;;;;;;;3.42;0.70;;;18.80;70.30;;;;;;7403815;19;19928;-57
2023/01/05 01:10:24;;;;;;;;;;;18.80;70.20;;;;;;7407864;19;20246;-56
2023/01/05 01:12:55;;;;;;;3.65;0.60;;;18.80;70.30;;;;;;7405463;19;19938;-57
2023/01/05 01:15:24;;;;;;;4.03;0.80;;;18.70;70.20;;;;;;7403552;19;19922;-57
2023/01/05 01:17:56;;;;;;;3.60;0.50;;;18.70;70.20;;;;;;7406097;19;20332;-57
2023/01/05 01:20:25;;;;;;;2.63;0.30;;;18.70;70.30;;;;;;7403656;19;19922;-56
2023/01/05 01:22:59;;;;;;;3.28;0.40;;;18.70;70.30;;;;;;7404112;19;19953;-57
2023/01/05 01:25:28;;;;;;;3.72;0.40;;;18.60;70.30;;;;;;7405099;19;19918;-57
2023/01/05 01:27:57;;;;;;;3.65;0.38;;;18.60;70.40;;;;;;7405329;19;19922;-57
2023/01/05 01:30:27;;;;;;;2.53;0.50;;;18.60;70.40;;;;;;7404276;19;19933;-57
2023/01/05 01:32:58;;;;;;;4.13;0.70;;;18.60;70.40;;;;;;7404790;19;19938;-57
2023/01/05 01:35:27;;;;;;;2.67;0.40;;;18.50;71.00;;;;;;7400857;19;20256;-57
2023/01/05 01:37:57;;;;;;;2.42;0.40;;;18.50;70.50;;;;;;7402841;19;20066;-57
2023/01/05 01:40:27;;;;;;;3.80;0.57;;;18.50;70.60;;;;;;7403126;19;19922;-57
2023/01/05 01:42:56;;;;;;;2.30;0.50;;;18.50;70.60;;;;;;7405043;19;19986;-57
2023/01/05 01:45:28;;;;;;;2.50;0.32;;;18.40;70.60;;;;;;7401086;19;19951;-57
2023/01/05 01:48:03;;;;;;;3.63;0.45;;;18.40;70.60;;;;;;7403749;19;20360;-57
2023/01/05 01:50:44;;;;;;;3.85;0.45;;;18.40;70.80;;;;;;7402934;19;20315;-57
2023/01/05 01:53:18;;;;;;;3.20;0.63;;;18.30;70.80;;;;;;7402978;19;19915;-57
2023/01/05 01:55:48;;;;;;;3.35;0.70;;;18.30;70.80;;;;;;7403266;19;20347;-57
2023/01/05 01:58:21;;;;;;;3.17;0.60;;;18.30;70.90;;;;;;7400199;19;19939;-57
2023/01/05 02:00:50;;;;;;;3.78;0.60;;;18.30;70.90;;;;;;7405633;19;19930;-57
2023/01/05 02:03:21;;;;;;;4.72;0.57;;;18.20;71.00;;;;;;7404325;19;19927;-57
2023/01/05 02:05:51;;;;;;;3.42;0.40;;;18.20;71.00;;;;;;7403049;19;19914;-57
2023/01/05 02:08:24;;;;;;;2.67;0.50;;;18.20;71.00;;;;;;7404488;19;19927;-56
2023/01/05 02:11:02;;;;;;;4.18;0.50;;;18.20;71.10;;;;;;7404512;19;19922;-56
2023/01/05 02:13:45;;;;;;;4.43;0.68;;;18.20;71.70;;;;;;7403783;19;19935;-56
2023/01/05 02:16:26;;;;;;;3.70;0.80;;;18.20;71.00;;;;;;7408586;19;19934;-57
2023/01/05 02:19:23;;;;;;;2.45;0.45;;;18.20;70.90;;;;;;7410788;19;20349;-58
2023/01/05 02:22:04;;;;;;;3.58;0.80;;;18.20;70.90;;;;;;7408047;19;19965;-57
2023/01/05 02:24:57;;;;;;;2.90;0.88;;;18.20;70.80;;;;;;7410917;19;19923;-57
2023/01/05 02:27:48;;;;;;;3.72;0.40;;;18.30;70.70;;;;;;7411848;19;19925;-57
2023/01/05 02:30:49;;;;;;;2.97;0.43;;;18.30;70.60;;;;;;7412319;19;19922;-57
2023/01/05 02:33:31;;;;;;;3.10;0.45;;;18.40;70.60;;;;;;7408358;19;19926;-57
2023/01/05 02:36:06;;;;;;;4.07;0.73;;;18.50;70.40;;;;;;7408047;19;20248;-57
2023/01/05 02:38:40;;;;;;;2.97;0.40;;;18.50;70.20;;;;;;7409720;19;19919;-57
2023/01/05 02:41:14;;;;;;;3.38;0.57;;;18.60;70.10;;;;;;7410061;19;19918;-57
2023/01/05 02:43:46;;;;;;;2.92;0.52;;;18.60;70.00;;;;;;7409596;19;20336;-58
2023/01/05 02:46:15;;;;;;;4.40;0.40;;;18.70;69.90;;;;;;7409665;19;19935;-57
2023/01/05 02:48:53;;;;;;;3.45;0.40;;;18.70;69.80;;;;;;7407292;19;19915;-57
2023/01/05 02:51:26;;;;;;;4.40;0.60;;;18.70;69.70;;;;;;7405100;19;19918;-57
2023/01/05 02:54:00;;;;;;;3.45;0.43;;;18.70;69.60;;;;;;7407733;19;19935;-57
2023/01/05 02:56:35;;;;;;;3.03;0.47;;;18.80;69.60;;;;;;7408334;19;19930;-57
2023/01/05 02:59:08;;;;;;;3.90;0.70;;;18.80;69.70;;;;;;7409422;19;19922;-57
2023/01/05 03:01:41;;;;;;;2.83;0.73;;;18.70;69.60;;;;;;7403179;19;19927;-57
2023/01/05 03:04:21;;;;;;;5.43;0.80;;;18.70;69.60;;;;;;7407027;19;19982;-57
2023/01/05 03:06:56;;;;;;;3.70;0.40;;;18.70;69.70;;;;;;7410470;19;19915;-57
2023/01/05 03:09:28;;;;;;;5.53;0.82;;;18.70;69.70;;;;;;7409304;19;19978;-57
2023/01/05 03:14:48;;;;;;;4.35;0.77;;;18.70;69.80;;;;;;7408008;19;19923;-57
2023/01/05 03:17:27;;;;;;;2.72;0.60;;;18.60;69.80;;;;;;7406771;19;19922;-57
2023/01/05 03:20:01;;;;;;;2.63;0.60;;;18.60;69.80;;;;;;7407791;19;19923;-57
2023/01/05 03:36:32;;;;;;;4.25;0.40;;;18.40;70.00;;;;;;7404263;19;19919;-56
2023/01/05 03:39:04;;;;;;;3.83;0.60;;;18.40;70.10;;;;;;7407694;19;20381;-57
2023/01/05 03:41:33;;;;;;;3.67;0.60;;;18.30;70.10;;;;;;7405494;19;19978;-56
2023/01/05 03:44:03;;;;;;;2.90;0.63;;;18.30;70.20;;;;;;7409021;19;19990;-56
2023/01/05 03:46:32;;;;;;;3.03;0.40;;;18.30;70.20;;;;;;7407451;19;20018;-57
2023/01/05 03:49:01;;;;;;;4.07;0.68;;;18.30;70.30;;;;;;7408127;19;20367;-57
2023/01/05 03:51:33;;;;;;;6.65;1.10;;;18.20;70.30;;;;;;7405580;19;19998;-57
2023/01/05 03:54:02;;;;;;;3.15;0.50;;;18.20;70.60;;;;;;7405254;19;20263;-57
2023/01/05 03:56:32;;;;;;;3.35;0.47;;;18.20;70.40;;;;;;7405880;19;20019;-57
2023/01/05 03:59:01;;;;;;;2.88;0.40;;;18.20;70.40;;;;;;7407861;19;19935;-57
2023/01/05 04:01:39;;;;;;;4.05;0.60;;;18.20;70.40;;;;;;7404586;19;19925;-57
2023/01/05 04:04:09;;;;;;;2.92;0.50;;;18.20;70.40;;;;;;7404863;19;19923;-57
2023/01/05 04:06:40;;;;;;;3.58;0.50;;;18.20;70.40;;;;;;7406299;19;19930;-56
2023/01/05 04:09:10;;;;;;;4.10;0.82;;;18.20;70.30;;;;;;7408542;19;19941;-57
2023/01/05 04:11:40;;;;;;;3.95;0.70;;;18.20;70.20;;;;;;7406295;19;19960;-57
2023/01/05 04:14:09;;;;;;;3.40;0.60;;;18.30;70.20;;;;;;7407967;19;19919;-57
2023/01/05 04:16:38;;;;;;;4.93;0.70;;;18.30;70.10;;;;;;7403863;19;19930;-57
2023/01/05 04:19:07;;;;;;;2.33;0.30;;;18.40;70.10;;;;;;7405331;19;19926;-56
2023/01/05 04:21:36;;;;;;;2.97;0.52;;;18.40;69.90;;;;;;7405863;19;19914;-56
2023/01/05 04:24:10;;;;;;;3.28;0.43;;;18.50;69.90;;;;;;7406949;19;19915;-56
2023/01/05 04:26:41;;;;;;;5.60;0.85;;;18.50;69.70;;;;;;7405127;19;19936;-57
2023/01/05 04:29:13;;;;;;;3.70;0.70;;;18.60;69.60;;;;;;7404830;19;20332;-57
2023/01/05 04:31:43;;;;;;;3.10;0.60;;;18.60;69.50;;;;;;7403465;19;20316;-57
2023/01/05 04:34:12;;;;;;;3.45;0.68;;;18.70;69.40;;;;;;7406021;19;19923;-57
2023/01/05 04:36:42;;;;;;;4.28;0.73;;;18.70;69.30;;;;;;7404234;19;19942;-57
2023/01/05 04:39:14;;;;;;;3.95;0.52;;;18.70;69.20;;;;;;7402933;19;19935;-57
2023/01/05 04:41:43;;;;;;;2.47;0.35;;;18.70;69.10;;;;;;7405173;19;19982;-57
2023/01/05 04:44:12;;;;;;;4.95;0.55;;;18.80;69.10;;;;;;7405109;19;19926;-56
2023/01/05 04:46:41;;;;;;;3.30;0.75;;;18.80;69.10;;;;;;7407829;19;20277;-57
2023/01/05 04:49:11;;;;;;;4.20;0.60;;;18.80;69.10;;;;;;7403884;19;19922;-57
2023/01/05 04:51:41;;;;;;;4.25;0.43;;;18.70;69.10;;;;;;7406609;19;19923;-57
2023/01/05 04:54:12;;;;;;;1.85;0.47;;;18.80;69.20;;;;;;7403095;19;20304;-56
2023/01/05 04:56:41;;;;;;;2.33;0.43;;;18.80;69.20;;;;;;7405241;19;20406;-56
2023/01/05 04:59:11;;;;;;;2.38;0.40;;;18.70;69.20;;;;;;7405005;19;19914;-57
2023/01/05 05:01:40;;;;;;;3.00;0.47;;;18.70;69.20;;;;;;7405579;19;20348;-57
2023/01/05 05:04:09;;;;;;;4.28;0.60;;;18.60;69.20;;;;;;7406427;19;20380;-57
2023/01/05 05:06:38;;;;;;;4.20;0.60;;;18.60;69.30;;;;;;7407052;19;19919;-57
2023/01/05 05:09:07;;;;;;;4.03;0.70;;;18.60;69.40;;;;;;7406353;19;19918;-57
2023/01/05 05:11:40;;;;;;;3.55;0.47;;;18.60;69.40;;;;;;7405553;19;19957;-57
2023/01/05 05:14:09;;;;;;;3.85;0.60;;;18.50;69.40;;;;;;7405607;19;19951;-57
2023/01/05 05:16:38;;;;;;;3.33;0.50;;;18.50;69.50;;;;;;7407662;19;19930;-57
2023/01/05 05:19:07;;;;;;;4.70;0.50;;;18.50;69.50;;;;;;7404603;19;19926;-58
2023/01/05 05:21:36;;;;;;;4.00;0.57;;;18.50;69.60;;;;;;7406293;19;20257;-57
2023/01/05 05:24:09;;;;;;;4.22;1.00;;;18.50;69.70;;;;;;7406890;19;20362;-57
2023/01/05 05:26:40;;;;;;;3.50;0.70;;;18.40;69.60;;;;;;7408290;19;20341;-56
2023/01/05 05:29:10;;;;;;;3.38;0.40;;;18.40;69.70;;;;;;7406055;19;19929;-57
2023/01/05 05:31:39;;;;;;;3.90;0.50;;;18.40;69.70;;;;;;7407163;19;20312;-57
2023/01/05 05:34:08;;;;;;;4.13;0.65;;;18.30;69.70;;;;;;7405793;19;19914;-57
2023/01/05 05:36:38;;;;;;;4.50;0.80;;;18.30;69.80;;;;;;7406077;19;19922;-57
2023/01/05 05:39:07;;;;;;;2.92;0.43;;;18.20;69.80;;;;;;7404452;19;19947;-57
2023/01/05 05:41:36;;;;;;;3.53;0.70;;;18.20;69.90;;;;;;7404203;19;19923;-57
2023/01/05 05:44:08;;;;;;;3.28;0.43;;;18.20;69.90;;;;;;7404089;19;19958;-57
2023/01/05 05:46:37;;;;;;;4.35;0.47;;;18.20;70.00;;;;;;7403376;19;20339;-57
2023/01/05 05:49:07;;;;;;;2.85;0.40;;;18.20;70.00;;;;;;7403825;19;19954;-57
2023/01/05 05:51:36;;;;;;;4.05;0.73;;;18.10;70.00;;;;;;7410740;19;19919;-57
2023/01/05 05:54:06;;;;;;;2.40;0.63;;;18.20;70.10;;;;;;7408152;19;19922;-57
2023/01/05 05:56:35;;;;;;;2.88;0.57;;;18.20;70.00;;;;;;7405360;19;19918;-56
2023/01/05 05:59:07;;;;;;;3.40;0.40;;;18.20;70.00;;;;;;7410307;19;20344;-57
2023/01/05 06:01:36;;;;;;;3.58;0.50;;;18.20;69.90;;;;;;7411718;19;19925;-57
2023/01/05 06:04:08;;;;;;;3.15;0.70;;;18.20;69.90;;;;;;7410099;19;20005;-56
2023/01/05 06:06:37;;;;;;;4.05;0.68;;;18.20;69.70;;;;;;7410993;19;19918;-57
2023/01/05 06:09:10;;;;;;;3.00;0.45;;;18.30;69.70;;;;;;7409813;19;19931;-57
2023/01/05 06:11:40;;;;;;;3.50;0.60;;;18.30;69.60;;;;;;7408610;19;20442;-56
2023/01/05 06:14:12;;;;;;;3.22;0.60;;;18.40;69.60;;;;;;7411521;19;19937;-57
2023/01/05 06:16:41;;;;;;;4.22;0.40;;;18.40;69.40;;;;;;7410155;19;19935;-57
2023/01/05 06:19:11;;;;;;;2.78;0.52;;;18.50;69.30;;;;;;7409580;19;19926;-57
2023/01/05 06:21:40;;;;;;;3.03;0.40;;;18.60;69.30;;;;;;7410027;19;19918;-57
2023/01/05 06:24:10;;;;;;;4.47;0.40;;;18.60;69.10;;;;;;7406760;19;20336;-57
2023/01/05 06:26:46;;;;;;;4.80;0.63;;;18.70;69.00;;;;;;7410810;19;19936;-57
2023/01/05 06:29:19;;;;;;;3.22;0.50;;;18.70;68.90;;;;;;7411144;19;19919;-57
2023/01/05 06:31:57;;;;;;;3.15;0.40;;;18.70;68.80;;;;;;7411658;19;19915;-56
2023/01/05 06:34:27;;;;;;;2.28;0.57;;;18.80;68.90;;;;;;7410570;19;19922;-57
2023/01/05 06:36:57;;;;;;;2.60;0.82;;;18.80;68.80;;;;;;7408602;19;20252;-57
2023/01/05 06:39:26;;;;;;;3.30;0.28;;;18.80;68.80;;;;;;7409989;19;19930;-57
2023/01/05 06:41:55;;;;;;;2.67;0.30;;;18.80;68.80;;;;;;7410273;19;20007;-57
2023/01/05 06:44:27;;;;;;;2.35;0.52;;;18.70;68.80;;;;;;7407872;19;19942;-56
2023/01/05 06:46:56;;;;;;;2.90;0.50;;;18.70;68.80;;;;;;7409810;19;19922;-57
2023/01/05 06:49:25;;;;;;;3.55;0.38;;;18.70;68.80;;;;;;7409461;19;19918;-57
2023/01/05 06:51:54;;;;;;;2.55;0.63;;;18.70;68.90;;;;;;7411083;19;19926;-56
2023/01/05 06:54:23;;;;;;;2.33;0.57;;;18.60;68.90;;;;;;7409258;19;19915;-57
2023/01/05 06:56:52;;;;;;;4.20;0.60;;;18.60;68.90;;;;;;7410401;19;19962;-57
2023/01/05 06:59:22;;;;;;;4.03;0.57;;;18.60;69.10;;;;;;7406512;19;19950;-57
2023/01/05 07:01:53;;;;;;;3.25;0.43;;;18.60;69.10;;;;;;7403704;19;19942;-56
2023/01/05 07:04:23;;;;;;;3.35;0.57;;;18.60;69.10;;;;;;7408570;19;19922;-58
2023/01/05 07:06:57;;;;;;;3.22;0.73;;;18.50;69.10;;;;;;7407746;19;19929;-57
2023/01/05 07:09:26;;;;;;;3.55;0.45;;;18.50;69.10;;;;;;7409573;19;20302;-57
2023/01/05 07:11:56;;;;;;;2.75;0.68;;;18.50;69.20;;;;;;7407523;19;19914;-57
2023/01/05 07:14:25;;;;;;;2.70;0.80;;;18.50;69.30;;;;;;7407832;19;19919;-57
2023/01/05 07:16:57;;;;;;;3.97;0.50;;;18.50;69.30;;;;;;7410274;19;19930;-57
2023/01/05 07:19:26;;;;;;;2.33;0.47;;;18.40;69.30;;;;;;7407161;19;19919;-57
2023/01/05 07:21:55;;;;;;;3.00;0.30;;;18.40;69.40;;;;;;7406942;19;19926;-57
2023/01/05 07:24:25;;;;;;;3.20;0.50;;;18.30;69.40;;;;;;7408918;19;19946;-56
2023/01/05 07:26:54;;;;;;;3.75;0.40;;;18.30;69.40;;;;;;7409010;19;19923;-57
2023/01/05 07:29:23;;;;;;;5.22;0.40;;;18.30;69.60;;;;;;7406729;19;20322;-57
2023/01/05 07:32:00;;;;;;;3.38;0.40;;;18.30;69.60;;;;;;7408430;19;19941;-57
2023/01/05 07:34:29;;;;;;;3.50;0.80;;;18.20;69.60;;;;;;7408651;19;19926;-57
2023/01/05 07:36:59;;;;;;;2.65;0.43;;;18.20;69.60;;;;;;7408332;19;20290;-56
2023/01/05 07:39:48;;;;;;;4.25;0.50;;;18.20;69.70;;;;;;7407684;19;19915;-57
2023/01/05 07:42:37;;;;;;;3.35;0.60;;;18.20;70.40;;;;;;7408190;19;19915;-57
2023/01/05 07:45:26;;;;;;;4.28;0.82;;;18.10;69.80;;;;;;7406382;19;20390;-57
2023/01/05 07:48:18;;;;;;;3.58;0.50;;;18.20;69.80;;;;;;7405893;19;19914;-56
2023/01/05 07:51:07;;;;;;;3.17;0.50;;;18.20;69.70;;;;;;7404141;19;19914;-56
2023/01/05 07:53:57;;;;;;;2.72;0.47;;;18.20;70.30;;;;;;7406860;19;19936;-57
2023/01/05 07:56:46;;;;;;;4.45;0.98;;;18.20;69.60;;;;;;7406280;19;19922;-57
2023/01/05 07:59:16;;;;;;;3.83;0.52;;;18.30;69.60;;;;;;7407527;19;19914;-57
2023/01/05 08:01:48;;;;;;;2.58;0.60;;;18.30;69.60;;;;;;7406864;19;19918;-56
2023/01/05 08:04:21;;;;;;;3.10;0.30;;;18.30;69.40;;;;;;7406345;19;20343;-56
2023/01/05 08:06:51;;;;;;;2.95;0.30;;;18.40;69.30;;;;;;7408680;19;19919;-57
2023/01/05 08:12:02;;;;;;;4.50;0.40;;;18.50;69.20;;;;;;7401914;19;19925;-57
2023/01/05 08:14:31;;;;;;;3.40;0.47;;;18.60;69.10;;;;;;7409433;19;19926;-57
2023/01/05 08:17:00;;;;;;;4.20;0.60;;;18.60;68.90;;;;;;7407563;19;19922;-56
2023/01/05 08:19:40;;;;;;;3.30;0.30;;;18.70;68.80;;;;;;7403429;19;20269;-57
2023/01/05 08:22:09;;;;;;;3.17;0.35;;;18.70;68.80;;;;;;7408572;19;20305;-57
2023/01/05 08:24:41;;;;;;;4.13;0.73;;;18.70;68.60;;;;;;7405265;19;19922;-57
2023/01/05 08:27:10;;;;;;;2.60;0.50;;;18.70;68.60;;;;;;7408058;19;19923;-57
2023/01/05 08:29:39;;;;;;;2.60;0.30;;;18.80;68.60;;;;;;7405899;19;20340;-57
2023/01/05 08:32:11;;;;;;;2.80;0.40;;;18.80;68.60;;;;;;7408095;19;19950;-57
2023/01/05 08:34:42;;;;;;;3.00;0.43;;;18.80;68.60;;;;;;7404348;19;19918;-57
2023/01/05 08:37:12;;;;;;;2.20;0.28;;;18.80;68.70;;;;;;7405060;19;19919;-57
2023/01/05 08:39:41;;;;;;;3.92;0.40;;;18.70;68.70;;;;;;7405173;19;19921;-57
2023/01/05 08:42:10;;;;;;;3.38;0.68;;;18.70;68.70;;;;;;7406260;19;19977;-56
2023/01/05 08:44:43;;;;;;;2.78;0.60;;;18.70;68.80;;;;;;7403995;19;19926;-56
2023/01/05 08:47:12;;;;;;;2.30;0.40;;;18.70;68.80;;;;;;7406811;19;20256;-57
2023/01/05 08:49:44;;;;;;;2.63;0.50;;;18.70;68.80;;;;;;7406361;19;19918;-56
2023/01/05 08:52:13;;;;;;;3.80;0.52;;;18.60;68.80;;;;;;7407427;19;19926;-56
2023/01/05 08:54:43;;;;;;;2.25;0.45;;;18.60;68.90;;;;;;7407185;19;20336;-57
2023/01/05 08:57:13;;;;;;;4.15;0.60;;;18.60;68.90;;;;;;7404825;19;19929;-56
2023/01/05 08:59:42;;;;;;;;;;;18.60;69.00;;;;;;7407641;19;20485;-56
2023/01/05 09:02:13;;;;;;;3.40;0.50;;;18.60;69.00;;;;;;7406625;19;19924;-57
2023/01/05 09:04:46;;;;;;;3.40;0.90;;;18.50;69.10;;;;;;7404051;19;19945;-57
2023/01/05 09:07:15;;;;;;;2.25;0.50;;;18.50;69.10;;;;;;7406740;19;19921;-57
2023/01/05 09:09:44;;;;;;;3.10;0.60;;;18.50;69.10;;;;;;7405157;19;19926;-57
2023/01/05 09:12:20;;;;;;;2.83;0.35;;;18.50;69.20;;;;;;7404484;19;19931;-57
2023/01/05 09:14:49;;;;;;;3.42;0.30;;;18.40;69.20;;;;;;7405954;19;20336;-57
2023/01/05 09:17:18;;;;;;;4.45;0.73;;;18.40;69.30;;;;;;7404860;19;19914;-56
2023/01/05 09:19:50;;;;;;;4.40;0.73;;;18.40;69.30;;;;;;7401369;19;19923;-57
2023/01/05 09:22:22;;;;;;;8.98;0.85;;;18.30;69.40;;;;;;7405429;19;19914;-57
2023/01/05 09:24:54;;;;;;;7.15;0.73;;;18.30;69.50;;;;;;7402654;19;19922;-57
2023/01/05 09:27:23;;;;;;;3.10;0.50;;;18.30;69.60;;;;;;7404581;19;19918;-57
2023/01/05 09:29:52;;;;;;;2.88;0.77;;;18.30;69.70;;;;;;7401194;19;19925;-56
2023/01/05 09:32:22;;;;;;;3.50;0.32;;;18.30;69.80;;;;;;7398337;19;19953;-57
2023/01/05 09:34:54;;;;;;;5.30;0.57;;;18.30;70.00;;;;;;7401897;19;19933;-57
2023/01/05 09:37:23;;;;;;;5.03;0.57;;;18.30;69.90;;;;;;7401785;19;19942;-57
2023/01/05 09:39:53;;;;;;;4.82;0.50;;;18.30;70.00;;;;;;7403646;19;19921;-56
2023/01/05 09:42:26;;;;;;;5.20;0.65;;;18.30;69.90;;;;;;7401553;19;19919;-57
2023/01/05 09:45:00;;;;;;;5.50;1.05;;;18.40;69.90;;;;;;7403116;19;19922;-56
2023/01/05 09:47:34;;;;;;;6.05;1.02;;;18.50;70.00;;;;;;7402392;19;20340;-56
2023/01/05 09:50:08;;;;;;;5.28;0.93;;;18.50;69.90;;;;;;7401774;19;20410;-57
2023/01/05 09:52:37;;;;;;;4.10;0.63;;;18.50;69.90;;;;;;7400462;19;19918;-56
2023/01/05 09:55:17;;;;;;;3.28;0.70;;;18.60;69.80;;;;;;7401992;19;19922;-57
2023/01/05 09:57:56;;;;;;;17.70;5.63;;;18.70;70.00;;;;;;7401274;19;19933;-57
2023/01/05 10:00:28;;;;;;;43.70;15.70;;;18.70;69.80;;;;;;7402455;19;19950;-57
2023/01/05 10:03:02;;;;;;;25.67;7.15;;;18.80;69.70;;;;;;7400580;19;19918;-57
2023/01/05 10:05:42;;;;;;;22.25;8.00;;;18.90;69.70;;;;;;7402088;19;19932;-57
2023/01/05 10:08:18;;;;;;;23.55;7.43;;;19.00;69.70;;;;;;7404380;19;19929;-57
2023/01/05 10:13:01;;;;;;;24.25;7.28;;;19.10;69.60;;;;;;7401395;19;19922;-57
2023/01/05 10:13:44;;;;;;;20.15;7.70;;;19.10;69.50;;;;;;7400277;19;19923;-56
2023/01/05 10:16:18;;;;;;;20.63;6.72;;;19.20;69.30;;;;;;7401504;19;20490;-56
2023/01/05 10:18:48;;;;;;;23.35;6.88;;;19.30;69.30;;;;;;7400673;19;19946;-56
2023/01/05 10:21:29;;;;;;;18.67;5.85;;;19.40;69.20;;;;;;7400833;19;19998;-57
2023/01/05 10:24:13;;;;;;;19.08;6.07;;;19.40;69.10;;;;;;7399788;19;20985;-57
2023/01/05 10:26:48;;;;;;;19.52;6.53;;;19.50;69.10;;;;;;7401757;19;19922;-58
2023/01/05 10:29:23;;;;;;;18.50;5.35;;;19.60;69.00;;;;;;7395924;19;19923;-57
2023/01/05 10:33:54;;;;;;;23.88;6.95;;;19.70;69.00;;;;;;7100625;19;5011476;-58
2023/01/05 10:36:43;;;;;;;19.45;6.80;;;19.90;68.40;;;;;;7413941;19;19942;-58
2023/01/05 10:39:19;;;;;;;18.42;6.60;;;19.90;68.60;;;;;;7438914;19;19974;-58
2023/01/05 10:41:56;;;;;;;19.15;5.80;;;19.90;68.70;;;;;;7435699;19;19939;-56
2023/01/05 10:44:53;;;;;;;20.30;5.75;;;19.90;68.60;;;;;;7440261;19;20325;-58
2023/01/05 10:47:24;;;;;;;16.50;5.63;;;19.90;68.60;;;;;;7344066;19;19922;-57
2023/01/05 10:49:56;;;;;;;19.77;5.53;;;19.80;68.60;;;;;;7437140;19;19923;-58
2023/01/05 10:52:31;;;;;;;20.27;4.95;;;19.80;68.60;;;;;;7435898;19;19923;-58
2023/01/05 10:55:02;;;;;;;18.70;6.00;;;19.80;68.70;;;;;;7437108;19;19942;-56
2023/01/05 10:57:37;;;;;;;19.70;5.40;;;19.80;68.80;;;;;;7436459;19;19942;-56
2023/01/05 11:00:15;;;;;;;15.77;5.28;;;19.70;68.80;;;;;;7436739;19;19978;-57
2023/01/05 11:02:52;;;;;;;16.50;6.07;;;19.70;69.00;;;;;;7434533;19;19922;-57
2023/01/05 11:05:29;;;;;;;22.95;4.97;;;19.60;69.10;;;;;;7438553;19;19990;-57
2023/01/05 11:08:01;;;;;;;16.83;4.25;;;19.60;69.20;;;;;;7438377;19;19930;-56
2023/01/05 11:10:34;;;;;;;17.58;5.80;;;19.50;69.40;;;;;;7438566;19;19948;-57
2023/01/05 11:13:06;;;;;;;16.73;4.90;;;19.50;69.50;;;;;;7435889;19;19955;-56
2023/01/05 11:15:42;;;;;;;15.35;5.47;;;19.50;69.50;;;;;;7437488;19;19926;-56
2023/01/05 11:18:27;;;;;;;14.23;5.57;;;19.40;69.60;;;;;;7437460;19;19930;-57
2023/01/05 11:21:16;;;;;;;15.88;5.30;;;19.40;69.80;;;;;;7438571;19;20350;-57
2023/01/05 11:23:46;;;;;;;13.75;5.68;;;19.30;69.80;;;;;;7439019;19;19943;-57
2023/01/05 11:26:34;;;;;;;14.55;5.45;;;19.30;69.90;;;;;;7436537;19;19986;-57
2023/01/05 11:29:12;;;;;;;14.20;4.65;;;19.30;70.00;;;;;;7434459;19;19918;-56
2023/01/05 11:31:48;;;;;;;13.07;3.88;;;19.20;70.10;;;;;;7432837;19;19958;-56
2023/01/05 11:34:32;;;;;;;12.60;4.75;;;19.10;70.20;;;;;;7435276;19;19918;-57
2023/01/05 11:37:24;;;;;;;12.40;5.15;;;19.10;70.20;;;;;;7433139;19;19922;-56
2023/01/05 11:39:56;;;;;;;15.75;5.05;;;19.00;70.20;;;;;;7436101;19;19930;-55
2023/01/05 11:42:34;;;;;;;14.85;3.60;;;19.00;70.40;;;;;;7438297;19;19915;-56
2023/01/05 11:45:06;;;;;;;13.55;3.92;;;19.00;70.50;;;;;;7407514;19;19957;-56
2023/01/05 11:47:39;;;;;;;12.98;4.78;;;18.90;70.50;;;;;;7409217;19;19929;-56
2023/01/05 11:50:20;;;;;;;13.07;4.70;;;18.90;70.60;;;;;;7408036;19;19918;-56
2023/01/05 11:52:54;;;;;;;11.07;4.68;;;18.90;70.70;;;;;;7406350;19;19955;-56
2023/01/05 11:55:39;;;;;;;14.82;3.22;;;18.80;71.40;;;;;;7406585;19;19923;-56
2023/01/05 11:58:32;;;;;;;14.43;4.07;;;18.80;71.00;;;;;;7405301;19;19930;-56
2023/01/05 12:01:27;;;;;;;14.88;4.97;;;18.70;71.00;;;;;;7407082;19;19923;-56
2023/01/05 12:04:03;;;;;;;11.57;3.22;;;18.80;71.10;;;;;;7406321;19;20028;-56
2023/01/05 12:06:43;;;;;;;;;;;18.70;71.10;;;;;;7409407;19;19922;-56
2023/01/05 12:09:22;;;;;;;13.75;3.42;;;18.70;71.10;;;;;;7405805;19;20300;-56
2023/01/05 12:11:59;;;;;;;11.43;4.72;;;18.80;71.10;;;;;;7407803;19;20630;-56
2023/01/05 12:14:46;;;;;;;13.50;4.40;;;18.80;71.10;;;;;;7407111;19;19995;-56
2023/01/05 12:17:16;;;;;;;10.95;2.90;;;18.80;71.10;;;;;;7401812;19;19925;-58
2023/01/05 12:20:09;;;;;;;10.90;2.58;;;18.90;71.10;;;;;;7404129;19;19941;-58
2023/01/05 12:23:02;;;;;;;8.95;3.63;;;18.90;71.10;;;;;;7405234;19;19922;-56
2023/01/05 12:25:50;;;;;;;10.65;3.47;;;19.00;71.10;;;;;;7406592;19;19943;-57
2023/01/05 12:28:42;;;;;;;9.77;3.15;;;19.00;71.00;;;;;;7405464;19;19926;-57
2023/01/05 12:31:34;;;;;;;12.80;3.33;;;19.00;71.00;;;;;;7404315;19;20284;-56
2023/01/05 12:34:17;;;;;;;9.27;2.67;;;19.00;71.00;;;;;;7404107;19;20335;-56
2023/01/05 12:37:02;;;;;;;12.32;3.42;;;19.00;71.00;;;;;;7407038;19;19978;-56
2023/01/05 12:40:09;;;;;;;9.02;4.05;;;19.00;71.10;;;;;;7404292;19;20690;-57
2023/01/05 12:43:01;;;;;;;10.77;3.70;;;19.00;71.80;;;;;;7401068;19;19945;-57
2023/01/05 12:46:10;;;;;;;9.45;2.20;;;19.00;71.20;;;;;;7406987;19;19929;-56
2023/01/05 12:48:59;;;;;;;7.97;3.45;;;18.90;71.20;;;;;;7405294;19;19917;-57
2023/01/05 12:51:33;;;;;;;8.13;2.08;;;18.90;71.20;;;;;;7404025;19;19922;-57
2023/01/05 12:54:07;;;;;;;10.30;3.42;;;18.90;71.30;;;;;;7408617;19;20376;-55
2023/01/05 12:56:41;;;;;;;8.27;3.05;;;18.90;71.30;;;;;;7403392;19;20363;-57
2023/01/05 12:59:19;;;;;;;9.32;2.17;;;18.80;71.30;;;;;;7406425;19;19925;-56
2023/01/05 13:01:57;;;;;;;10.02;3.25;;;18.80;71.40;;;;;;7409589;19;19939;-57
2023/01/05 13:04:39;;;;;;;12.60;4.03;;;18.80;71.50;;;;;;7406803;19;20330;-56
2023/01/05 13:07:12;;;;;;;9.18;2.10;;;18.80;71.50;;;;;;7405988;19;19915;-57
2023/01/05 13:09:43;;;;;;;8.95;2.50;;;18.80;71.60;;;;;;7408347;19;19918;-56
2023/01/05 13:12:15;;;;;;;8.73;2.33;;;18.70;71.50;;;;;;7406163;19;19915;-56
2023/01/05 13:15:02;;;;;;;9.68;2.65;;;18.70;71.60;;;;;;7410062;19;19921;-57
2023/01/05 13:17:36;;;;;;;7.28;2.90;;;18.70;71.60;;;;;;7406108;19;20331;-57
2023/01/05 13:20:22;;;;;;;8.57;2.47;;;18.60;71.60;;;;;;7409959;19;20306;-56
2023/01/05 13:22:57;;;;;;;9.00;2.63;;;18.60;71.60;;;;;;7406125;19;19915;-58
2023/01/05 13:25:28;;;;;;;9.38;2.05;;;18.60;71.70;;;;;;7406410;19;19919;-56
2023/01/05 13:27:59;;;;;;;7.38;2.53;;;18.60;71.80;;;;;;7410297;19;20320;-56
2023/01/05 13:30:44;;;;;;;7.22;1.85;;;18.50;71.80;;;;;;7405403;19;19954;-58
2023/01/05 13:33:38;;;;;;;8.57;2.60;;;18.50;71.80;;;;;;7403410;19;19922;-56
2023/01/05 13:36:26;;;;;;;8.00;2.45;;;18.50;71.90;;;;;;7407857;19;20305;-57
2023/01/05 13:39:22;;;;;;;8.55;3.20;;;18.40;71.90;;;;;;7405182;19;19923;-56
2023/01/05 13:42:25;;;;;;;9.07;3.08;;;18.40;72.00;;;;;;7405154;19;19918;-56
2023/01/05 13:45:16;;;;;;;9.48;2.75;;;18.40;72.00;;;;;;7409000;19;19922;-57
2023/01/05 13:48:17;;;;;;;5.20;2.28;;;18.30;72.00;;;;;;7404707;19;19921;-56
2023/01/05 13:51:01;;;;;;;8.45;3.65;;;18.30;72.10;;;;;;7401769;19;19918;-57
2023/01/05 13:53:33;;;;;;;9.27;2.63;;;18.30;72.10;;;;;;7399916;19;19956;-56
2023/01/05 13:56:07;;;;;;;8.82;2.80;;;18.30;72.20;;;;;;7409868;19;19941;-56